Time;durP1;ratioP1;P1;durP2;ratioP2;P2;SDS_P1;SDS_P2;PMS_P1;PMS_P2;Temp;Humidity;BMP_temperature;BMP_pressure;BME280_temperature;BME280_humidity;BME280_pressure;Samples;Min_cycle;Max_cycle;Signal;HPM_P1;HPM_P2
2022/02/08 00:02:01;;;;;;;3.13;1.50;;;6.70;99.90;;;;;;4929099;28;20228;-51
2022/02/08 00:04:29;;;;;;;3.03;1.73;;;6.70;99.90;;;;;;4915139;28;20506;-50
2022/02/08 00:07:01;;;;;;;2.35;1.35;;;6.70;99.90;;;;;;4909877;28;20260;-50
2022/02/08 00:09:30;;;;;;;2.67;1.80;;;6.70;99.90;;;;;;4928694;28;20222;-51
2022/02/08 00:11:59;;;;;;;1.80;1.40;;;6.70;99.90;;;;;;4928863;28;20256;-52
2022/02/08 00:14:27;;;;;;;3.83;1.60;;;6.70;99.90;;;;;;4923304;29;20197;-51
2022/02/08 00:16:55;;;;;;;2.17;1.40;;;6.70;99.90;;;;;;4913255;28;20224;-51
2022/02/08 00:19:24;;;;;;;2.10;1.65;;;6.70;99.90;;;;;;4916258;29;20225;-51
2022/02/08 00:21:52;;;;;;;4.35;2.10;;;6.70;99.90;;;;;;4912133;28;20235;-50
2022/02/08 00:24:20;;;;;;;3.60;1.90;;;6.70;99.90;;;;;;4929464;28;20197;-51
2022/02/08 00:26:48;;;;;;;2.88;1.48;;;6.70;99.90;;;;;;4928195;28;20709;-51
2022/02/08 00:29:18;;;;;;;3.25;1.30;;;6.70;99.90;;;;;;4908991;29;20643;-50
2022/02/08 00:31:46;;;;;;;2.15;1.40;;;6.70;99.90;;;;;;4921466;28;20634;-51
2022/02/08 00:34:14;;;;;;;4.15;1.40;;;6.70;99.90;;;;;;4916175;29;20201;-51
2022/02/08 00:36:45;;;;;;;2.80;1.52;;;6.70;99.90;;;;;;4935150;28;20696;-51
2022/02/08 00:39:13;;;;;;;3.22;2.22;;;6.70;99.90;;;;;;4928815;29;20618;-51
2022/02/08 00:41:41;;;;;;;3.75;1.60;;;6.70;99.90;;;;;;4932381;28;20224;-52
2022/02/08 00:44:13;;;;;;;1.52;1.10;;;6.70;99.90;;;;;;4927232;29;20239;-51
2022/02/08 00:46:46;;;;;;;4.25;1.33;;;6.70;99.90;;;;;;4933667;28;20212;-51
2022/02/08 00:49:14;;;;;;;2.05;1.25;;;6.70;99.90;;;;;;4924787;29;20295;-51
2022/02/08 00:51:50;;;;;;;3.55;1.17;;;6.70;99.90;;;;;;4925240;29;20240;-51
2022/02/08 00:54:19;;;;;;;1.40;0.77;;;6.70;99.90;;;;;;4927309;29;20243;-52
2022/02/08 00:56:48;;;;;;;2.45;1.50;;;6.70;99.90;;;;;;4926563;28;20710;-51
2022/02/08 00:59:17;;;;;;;3.55;1.50;;;6.70;99.90;;;;;;4908865;29;20669;-51
2022/02/08 01:01:45;;;;;;;2.35;1.48;;;6.70;99.90;;;;;;4942908;28;20233;-50
2022/02/08 01:04:13;;;;;;;1.70;1.35;;;6.70;99.90;;;;;;4928389;29;20244;-51
2022/02/08 01:06:42;;;;;;;3.40;1.20;;;6.70;99.90;;;;;;4928516;28;20642;-51
2022/02/08 01:09:15;;;;;;;1.40;1.30;;;6.70;99.90;;;;;;4927251;29;20208;-51
2022/02/08 01:11:50;;;;;;;2.42;1.42;;;6.70;99.90;;;;;;4927073;28;20263;-52
2022/02/08 01:14:18;;;;;;;2.72;1.20;;;6.70;99.90;;;;;;4926038;29;20201;-52
2022/02/08 01:16:46;;;;;;;5.15;1.33;;;6.70;99.90;;;;;;4927964;28;20224;-51
2022/02/08 01:19:16;;;;;;;1.23;0.82;;;6.70;99.90;;;;;;4925905;29;20308;-52
2022/02/08 01:21:44;;;;;;;1.83;1.00;;;6.70;99.90;;;;;;4928215;28;20220;-51
2022/02/08 01:24:13;;;;;;;4.15;1.02;;;6.70;99.90;;;;;;4927549;29;20683;-50
2022/02/08 01:26:48;;;;;;;2.22;1.45;;;6.70;99.90;;;;;;4926755;29;20243;-50
2022/02/08 01:29:23;;;;;;;2.20;1.00;;;6.70;99.90;;;;;;4923605;29;20257;-51
2022/02/08 01:31:54;;;;;;;1.95;1.25;;;6.70;99.90;;;;;;4926882;28;20293;-52
2022/02/08 01:34:33;;;;;;;1.65;1.25;;;6.70;99.90;;;;;;4916693;28;20193;-51
2022/02/08 01:37:08;;;;;;;1.25;1.08;;;6.70;99.90;;;;;;4948505;28;20218;-51
2022/02/08 01:39:48;;;;;;;2.10;1.30;;;6.70;99.90;;;;;;4951286;28;20221;-50
2022/02/08 01:42:28;;;;;;;1.48;1.20;;;6.70;99.90;;;;;;4935749;28;20632;-52
2022/02/08 01:45:09;;;;;;;1.40;1.00;;;6.70;99.90;;;;;;4939421;28;20783;-50
2022/02/08 01:47:50;;;;;;;2.10;1.30;;;6.70;99.90;;;;;;4927496;29;20206;-51
2022/02/08 01:50:18;;;;;;;2.00;0.90;;;6.70;99.90;;;;;;4984218;28;20221;-51
2022/02/08 01:52:48;;;;;;;1.30;1.02;;;6.70;99.90;;;;;;4986405;28;20197;-51
2022/02/08 01:55:26;;;;;;;1.45;1.27;;;6.70;99.90;;;;;;4944963;28;20228;-51
2022/02/08 01:58:15;;;;;;;1.13;0.90;;;6.70;99.90;;;;;;4929820;29;20267;-51
2022/02/08 02:00:43;;;;;;;2.08;1.00;;;6.70;99.90;;;;;;4927800;28;20354;-51
2022/02/08 02:03:12;;;;;;;2.38;1.20;;;6.70;99.90;;;;;;4928786;28;20321;-51
2022/02/08 02:05:40;;;;;;;1.98;1.35;;;6.70;99.90;;;;;;4930046;28;20303;-51
2022/02/08 02:08:09;;;;;;;1.85;1.00;;;6.70;99.90;;;;;;4931686;28;20201;-51
2022/02/08 02:10:41;;;;;;;1.48;1.13;;;6.70;99.90;;;;;;4930361;28;20228;-50
2022/02/08 02:13:19;;;;;;;2.80;1.50;;;6.70;99.90;;;;;;4929405;29;20665;-51
2022/02/08 02:15:47;;;;;;;1.20;1.08;;;6.70;99.90;;;;;;4929822;29;20224;-51
2022/02/08 02:18:15;;;;;;;1.60;1.10;;;6.70;99.90;;;;;;4929386;28;20650;-51
2022/02/08 02:20:43;;;;;;;1.17;1.08;;;6.70;99.90;;;;;;4912052;28;20322;-51
2022/02/08 02:23:11;;;;;;;1.13;0.90;;;6.70;99.90;;;;;;4932337;28;20222;-51
2022/02/08 02:25:41;;;;;;;2.42;1.02;;;6.70;99.90;;;;;;4930497;28;20224;-52
2022/02/08 02:28:09;;;;;;;1.27;1.00;;;6.70;99.90;;;;;;4923523;29;20201;-51
2022/02/08 02:30:37;;;;;;;1.90;1.15;;;6.70;99.90;;;;;;4929590;28;20241;-51
2022/02/08 02:33:08;;;;;;;2.95;1.05;;;6.70;99.90;;;;;;4928205;29;20584;-51
2022/02/08 02:35:37;;;;;;;4.00;1.48;;;6.70;99.90;;;;;;4910480;28;20720;-50
2022/02/08 02:38:07;;;;;;;1.20;1.10;;;6.70;99.90;;;;;;4933040;28;20192;-52
2022/02/08 02:40:41;;;;;;;1.20;1.00;;;6.70;99.90;;;;;;4948596;28;20714;-50
2022/02/08 02:43:11;;;;;;;1.80;1.05;;;6.70;99.90;;;;;;4919645;29;20664;-51
2022/02/08 02:45:40;;;;;;;1.60;1.13;;;6.70;99.90;;;;;;4945525;28;20338;-51
2022/02/08 02:48:10;;;;;;;0.95;0.95;;;6.70;99.90;;;;;;4942754;29;20197;-52
2022/02/08 02:50:51;;;;;;;1.25;1.15;;;6.70;99.90;;;;;;4993377;28;20685;-52
2022/02/08 02:53:23;;;;;;;1.35;0.90;;;6.70;99.90;;;;;;4935432;28;20647;-51
2022/02/08 02:55:51;;;;;;;1.80;1.05;;;6.70;99.90;;;;;;4928606;28;20568;-51
2022/02/08 02:58:26;;;;;;;1.05;0.80;;;6.70;99.90;;;;;;4927472;29;20235;-51
2022/02/08 03:01:10;;;;;;;0.95;0.75;;;6.70;99.90;;;;;;4945362;28;20318;-51
2022/02/08 03:03:51;;;;;;;1.15;0.80;;;6.70;99.90;;;;;;4923658;29;20255;-52
2022/02/08 03:17:56;;;;;;;1.25;1.00;;;6.70;99.90;;;;;;4959855;28;20222;-52
2022/02/08 03:20:25;;;;;;;1.20;1.10;;;6.70;99.90;;;;;;4918354;29;20229;-51
2022/02/08 03:22:58;;;;;;;1.40;1.00;;;6.70;99.90;;;;;;4946078;29;20203;-50
2022/02/08 03:25:27;;;;;;;2.50;1.08;;;6.70;99.90;;;;;;4943360;28;20224;-50
2022/02/08 03:27:59;;;;;;;1.02;0.88;;;6.70;99.90;;;;;;4912528;29;20205;-51
2022/02/08 03:30:29;;;;;;;2.50;0.98;;;6.70;99.90;;;;;;4931206;28;20235;-51
2022/02/08 03:32:58;;;;;;;1.45;0.80;;;6.70;99.90;;;;;;4928218;28;20232;-50
2022/02/08 03:35:29;;;;;;;1.45;1.00;;;6.70;99.90;;;;;;4927479;28;20213;-50
2022/02/08 03:38:01;;;;;;;1.02;0.80;;;6.70;99.90;;;;;;4929059;29;20210;-50
2022/02/08 03:40:39;;;;;;;0.82;0.80;;;6.70;99.90;;;;;;4927154;28;20248;-51
2022/02/08 03:43:27;;;;;;;1.45;1.02;;;6.70;99.90;;;;;;4962182;28;20395;-51
2022/02/08 03:46:04;;;;;;;1.70;1.20;;;6.70;99.90;;;;;;4928256;28;20258;-51
2022/02/08 03:48:34;;;;;;;0.80;0.80;;;6.70;99.90;;;;;;4928915;29;20197;-51
2022/02/08 03:51:09;;;;;;;1.10;0.90;;;6.70;99.90;;;;;;4910653;28;20299;-51
2022/02/08 03:53:45;;;;;;;0.93;0.88;;;6.70;99.90;;;;;;4949734;28;20220;-51
2022/02/08 03:56:21;;;;;;;2.05;0.80;;;6.70;99.90;;;;;;4927614;28;20232;-51
2022/02/08 03:58:55;;;;;;;1.30;0.80;;;6.70;99.90;;;;;;4947563;28;20208;-50
2022/02/08 04:02:02;;;;;;;1.65;0.68;;;6.70;99.90;;;;;;4947311;28;20241;-50
2022/02/08 04:04:36;;;;;;;2.35;0.70;;;6.70;99.90;;;;;;4921244;29;20196;-52
2022/02/08 04:07:11;;;;;;;1.10;0.90;;;6.70;99.90;;;;;;4929792;28;20217;-52
2022/02/08 04:09:39;;;;;;;1.20;1.10;;;6.70;99.90;;;;;;4930376;29;20212;-51
2022/02/08 04:12:14;;;;;;;1.55;1.45;;;6.70;99.90;;;;;;4919545;28;20240;-50
2022/02/08 04:14:48;;;;;;;1.15;1.05;;;6.70;99.90;;;;;;4930300;29;20854;-51
2022/02/08 04:17:29;;;;;;;1.85;0.90;;;6.70;99.90;;;;;;4934551;28;20586;-51
2022/02/08 04:31:23;;;;;;;1.60;0.90;;;6.70;99.90;;;;;;4916084;28;20237;-51
2022/02/08 04:31:34;;;;;;;4.32;1.35;;;6.70;99.90;;;;;;4910972;28;20293;-51
2022/02/08 04:34:22;;;;;;;1.05;0.75;;;6.70;99.90;;;;;;4919192;29;20245;-51
2022/02/08 04:37:17;;;;;;;2.05;1.67;;;6.70;99.90;;;;;;4939186;28;20236;-51
2022/02/08 04:40:00;;;;;;;1.60;0.73;;;6.70;99.90;;;;;;4929984;29;20227;-51
2022/02/08 04:42:34;;;;;;;1.23;1.00;;;6.70;99.90;;;;;;4919244;29;20280;-51
2022/02/08 04:45:12;;;;;;;1.95;0.98;;;6.70;99.90;;;;;;4913744;29;21187;-50
2022/02/08 04:47:45;;;;;;;1.05;0.95;;;6.70;99.90;;;;;;4930877;29;20212;-51
2022/02/08 04:50:17;;;;;;;1.60;1.15;;;6.70;99.90;;;;;;4912373;28;20640;-51
2022/02/08 04:52:46;;;;;;;1.67;0.75;;;6.70;99.90;;;;;;4912780;29;20221;-51
2022/02/08 04:55:37;;;;;;;1.10;0.88;;;6.70;99.90;;;;;;4914732;28;20282;-51
2022/02/08 04:58:16;;;;;;;1.13;0.80;;;6.70;99.90;;;;;;4926330;28;20195;-51
2022/02/08 05:00:57;;;;;;;1.48;1.15;;;6.70;99.90;;;;;;4914360;28;20788;-50
2022/02/08 05:42:30;;;;;;;1.58;1.20;;;6.70;99.90;;;;;;4926797;28;20210;-50
2022/02/08 05:45:02;;;;;;;1.00;0.70;;;6.70;99.90;;;;;;4924298;28;20735;-51
2022/02/08 05:47:30;;;;;;;2.55;1.00;;;6.70;99.90;;;;;;4993674;28;20270;-52
2022/02/08 05:50:08;;;;;;;0.70;0.70;;;6.70;99.90;;;;;;4930949;29;20610;-51
2022/02/08 05:52:49;;;;;;;1.20;0.80;;;6.70;99.90;;;;;;4931267;29;20749;-51
2022/02/08 05:55:19;;;;;;;0.60;0.60;;;6.70;99.90;;;;;;4924177;28;20232;-50
2022/02/08 05:57:48;;;;;;;2.22;1.10;;;6.70;99.90;;;;;;4945402;28;20193;-52
2022/02/08 06:00:17;;;;;;;0.93;0.70;;;6.70;99.90;;;;;;4930635;29;20244;-52
2022/02/08 06:03:02;;;;;;;1.20;1.00;;;6.60;99.90;;;;;;4928384;29;20291;-51
2022/02/08 06:05:38;;;;;;;1.80;1.02;;;6.70;99.90;;;;;;4929682;28;20252;-51
2022/02/08 06:08:06;;;;;;;0.90;0.90;;;6.70;99.90;;;;;;4930797;29;20284;-51
2022/02/08 06:10:45;;;;;;;0.82;0.73;;;6.70;99.90;;;;;;4930035;28;20221;-50
2022/02/08 06:13:14;;;;;;;1.75;0.90;;;6.70;99.90;;;;;;4921863;29;20211;-51
2022/02/08 06:15:43;;;;;;;1.48;1.00;;;6.70;99.90;;;;;;4942739;28;20631;-51
2022/02/08 06:18:11;;;;;;;1.05;0.95;;;6.70;99.90;;;;;;4926551;29;20220;-51
2022/02/08 06:20:39;;;;;;;1.00;0.90;;;6.70;99.90;;;;;;4947706;28;20464;-52
2022/02/08 06:23:08;;;;;;;2.05;0.82;;;6.70;99.90;;;;;;4944942;28;20208;-51
2022/02/08 06:25:37;;;;;;;1.17;0.73;;;6.70;99.90;;;;;;4929950;28;20332;-51
2022/02/08 06:28:05;;;;;;;1.10;0.95;;;6.70;99.90;;;;;;4925887;29;20303;-51
2022/02/08 06:30:33;;;;;;;1.08;0.80;;;6.70;99.90;;;;;;4930023;28;20238;-51
2022/02/08 06:33:01;;;;;;;1.35;0.77;;;6.70;99.90;;;;;;4928286;29;20275;-52
2022/02/08 06:35:31;;;;;;;1.58;1.00;;;6.70;99.90;;;;;;4931522;28;20645;-51
2022/02/08 06:38:00;;;;;;;1.00;0.60;;;6.70;99.90;;;;;;4930520;28;20301;-50
2022/02/08 06:40:29;;;;;;;0.98;0.90;;;6.70;99.90;;;;;;4935237;28;20373;-52
2022/02/08 06:43:00;;;;;;;2.20;0.90;;;6.70;99.90;;;;;;4916819;29;20260;-51
2022/02/08 06:45:29;;;;;;;1.35;1.00;;;6.70;99.90;;;;;;4915951;28;20269;-51
2022/02/08 06:48:03;;;;;;;0.90;0.80;;;6.70;99.90;;;;;;4928543;29;20411;-51
2022/02/08 06:50:32;;;;;;;1.98;1.33;;;6.70;99.90;;;;;;4929972;28;20233;-51
2022/02/08 06:53:00;;;;;;;1.17;0.95;;;6.70;99.90;;;;;;4930233;29;20563;-52
2022/02/08 06:55:28;;;;;;;0.98;0.70;;;6.70;99.90;;;;;;4929385;28;20274;-50
2022/02/08 06:58:02;;;;;;;0.80;0.70;;;6.70;99.90;;;;;;4922573;29;20201;-50
2022/02/08 07:00:36;;;;;;;0.68;0.60;;;6.70;99.90;;;;;;4919048;28;20219;-52
2022/02/08 07:03:10;;;;;;;1.45;0.95;;;6.70;99.90;;;;;;4929076;29;20203;-51
2022/02/08 07:05:39;;;;;;;1.23;1.02;;;6.70;99.90;;;;;;4924718;28;20226;-52
2022/02/08 07:08:09;;;;;;;1.15;0.90;;;6.70;99.90;;;;;;4946462;28;21669;-51
2022/02/08 07:10:39;;;;;;;0.52;0.50;;;6.70;99.90;;;;;;4929708;28;20297;-50
2022/02/08 07:13:08;;;;;;;1.13;0.95;;;6.70;99.90;;;;;;4925839;29;20619;-51
2022/02/08 07:15:38;;;;;;;1.15;0.70;;;6.70;99.90;;;;;;4928717;28;20380;-51
2022/02/08 07:18:06;;;;;;;1.02;0.93;;;6.70;99.90;;;;;;4929090;29;20205;-51
2022/02/08 07:20:35;;;;;;;1.00;0.70;;;6.70;99.90;;;;;;4910586;28;20225;-51
2022/02/08 07:23:03;;;;;;;0.80;0.55;;;6.70;99.90;;;;;;4914966;29;20200;-51
2022/02/08 07:25:35;;;;;;;1.10;1.00;;;6.70;99.90;;;;;;4929159;28;20299;-50
2022/02/08 07:28:03;;;;;;;0.88;0.80;;;6.70;99.90;;;;;;4921717;29;20661;-51
2022/02/08 07:30:35;;;;;;;1.55;0.80;;;6.70;99.90;;;;;;4918193;28;20320;-50
2022/02/08 07:33:05;;;;;;;0.80;0.80;;;6.70;99.90;;;;;;4944882;29;20202;-50
2022/02/08 07:35:45;;;;;;;0.90;0.60;;;6.70;99.90;;;;;;4917635;28;20220;-51
2022/02/08 07:38:21;;;;;;;0.82;0.80;;;6.70;99.90;;;;;;4929383;29;20212;-51
2022/02/08 07:43:34;;;;;;;0.85;0.75;;;6.70;99.90;;;;;;4922634;29;20657;-51
2022/02/08 07:46:11;;;;;;;0.95;0.70;;;6.70;99.90;;;;;;4929274;28;20235;-51
2022/02/08 07:48:40;;;;;;;1.55;0.98;;;6.70;99.90;;;;;;4931936;29;20188;-51
2022/02/08 07:51:10;;;;;;;0.90;0.90;;;6.70;99.90;;;;;;4933881;28;20240;-50
2022/02/08 07:53:38;;;;;;;1.10;1.00;;;6.70;99.90;;;;;;4959503;28;20691;-51
2022/02/08 07:56:07;;;;;;;1.17;0.80;;;6.70;99.90;;;;;;4924407;28;20229;-51
2022/02/08 07:58:35;;;;;;;0.80;0.63;;;6.70;99.90;;;;;;4910582;29;20569;-51
2022/02/08 08:01:07;;;;;;;1.83;0.82;;;6.70;99.90;;;;;;4909521;28;20238;-51
2022/02/08 08:03:40;;;;;;;1.05;0.90;;;6.70;99.90;;;;;;4910663;29;20199;-51
2022/02/08 08:06:12;;;;;;;1.52;1.27;;;6.70;99.90;;;;;;4913165;28;20270;-51
2022/02/08 08:08:40;;;;;;;1.05;0.90;;;6.70;99.90;;;;;;4929718;28;20203;-51
2022/02/08 08:11:14;;;;;;;3.28;1.15;;;6.70;99.90;;;;;;4926845;29;20581;-51
2022/02/08 08:13:49;;;;;;;0.80;0.75;;;6.70;99.90;;;;;;4919834;29;20416;-51
2022/02/08 08:16:26;;;;;;;0.80;0.70;;;6.70;99.90;;;;;;4942728;28;20222;-51
2022/02/08 08:19:04;;;;;;;0.90;0.70;;;6.70;99.90;;;;;;4927838;29;20267;-51
2022/02/08 08:21:34;;;;;;;1.23;0.68;;;6.70;99.90;;;;;;4935158;28;20233;-51
2022/02/08 08:24:03;;;;;;;0.90;0.80;;;6.70;99.90;;;;;;4948689;28;20289;-52
2022/02/08 08:26:32;;;;;;;0.85;0.73;;;6.70;99.90;;;;;;4942964;28;20272;-51
2022/02/08 08:29:00;;;;;;;1.50;1.05;;;6.70;99.90;;;;;;4928616;29;20204;-51
2022/02/08 08:31:28;;;;;;;1.13;0.73;;;6.70;99.90;;;;;;4927974;28;20232;-52
2022/02/08 08:34:09;;;;;;;2.30;1.08;;;6.70;99.90;;;;;;4927909;29;20656;-52
2022/02/08 08:36:38;;;;;;;1.30;1.05;;;6.70;99.90;;;;;;4928168;28;20229;-50
2022/02/08 08:39:09;;;;;;;1.88;0.90;;;6.70;99.90;;;;;;4928917;29;20305;-51
2022/02/08 08:41:43;;;;;;;1.23;0.90;;;6.70;99.90;;;;;;4925329;28;20551;-51
2022/02/08 08:52:34;;;;;;;1.73;1.00;;;6.70;99.90;;;;;;4946890;28;20215;-51
2022/02/08 08:55:04;;;;;;;1.90;1.00;;;6.70;99.90;;;;;;4946878;28;20228;-51
2022/02/08 08:57:33;;;;;;;1.08;0.80;;;6.70;99.90;;;;;;4946881;28;20650;-51
2022/02/08 09:00:02;;;;;;;4.18;1.92;;;6.70;99.90;;;;;;4909837;28;20229;-51
2022/02/08 09:02:33;;;;;;;1.30;0.98;;;6.70;99.90;;;;;;4933214;29;20250;-50
2022/02/08 09:05:04;;;;;;;1.00;0.75;;;6.70;99.90;;;;;;4911913;28;20194;-52
2022/02/08 09:07:34;;;;;;;1.50;0.80;;;6.70;99.90;;;;;;4921003;28;20196;-51
2022/02/08 09:10:04;;;;;;;1.35;1.15;;;6.70;99.90;;;;;;4927645;28;20393;-51
2022/02/08 09:12:58;;;;;;;1.65;1.50;;;6.70;99.90;;;;;;4922878;29;20430;-51
2022/02/08 09:15:44;;;;;;;1.13;0.80;;;6.70;99.90;;;;;;4940839;28;20638;-51
2022/02/08 09:18:39;;;;;;;1.15;1.05;;;6.70;99.90;;;;;;4940993;29;20227;-51
2022/02/08 09:29:38;;;;;;;0.80;0.70;;;6.70;99.90;;;;;;4883402;29;20217;-51
2022/02/08 09:32:14;;;;;;;1.25;1.15;;;6.80;99.90;;;;;;4926530;28;20255;-51
2022/02/08 09:34:44;;;;;;;1.15;1.05;;;6.70;99.90;;;;;;4930731;29;20266;-52
2022/02/08 09:37:15;;;;;;;1.00;0.90;;;6.70;99.90;;;;;;4930710;28;20320;-50
2022/02/08 09:39:53;;;;;;;1.52;1.05;;;6.80;99.90;;;;;;4940275;28;20301;-51
2022/02/08 09:42:22;;;;;;;1.23;0.80;;;6.70;99.90;;;;;;4928271;28;20220;-50
2022/02/08 09:44:51;;;;;;;1.17;0.90;;;6.70;99.90;;;;;;4948443;29;20200;-50
2022/02/08 09:47:28;;;;;;;1.90;1.73;;;6.70;99.90;;;;;;4951340;28;20298;-51
2022/02/08 09:50:04;;;;;;;1.75;0.90;;;6.70;99.90;;;;;;4924932;28;20251;-50
2022/02/08 09:52:32;;;;;;;2.55;1.23;;;6.70;99.90;;;;;;4931308;28;20227;-51
2022/02/08 09:55:02;;;;;;;1.40;0.90;;;6.70;99.90;;;;;;4930584;28;20220;-51
2022/02/08 09:57:30;;;;;;;2.08;1.00;;;6.70;99.90;;;;;;4930745;29;20256;-51
2022/02/08 09:59:58;;;;;;;1.42;1.33;;;6.80;99.90;;;;;;4920200;29;20696;-51
2022/02/08 10:02:27;;;;;;;1.35;1.10;;;6.80;99.90;;;;;;4931311;29;20308;-50
2022/02/08 10:05:00;;;;;;;1.73;1.55;;;6.70;99.90;;;;;;4920792;29;20212;-52
2022/02/08 10:07:28;;;;;;;1.52;1.30;;;6.80;99.90;;;;;;4930898;29;20230;-50
2022/02/08 10:09:56;;;;;;;1.48;1.02;;;6.80;99.90;;;;;;4948382;28;20310;-51
2022/02/08 10:12:31;;;;;;;0.60;0.60;;;6.80;99.90;;;;;;4934438;28;20226;-50
2022/02/08 10:23:34;;;;;;;1.52;1.23;;;6.80;99.90;;;;;;4911671;29;20679;-52
2022/02/08 10:26:06;;;;;;;1.30;1.13;;;6.80;99.90;;;;;;4917177;28;20228;-50
2022/02/08 10:28:53;;;;;;;1.20;1.10;;;6.80;99.90;;;;;;4919247;29;20194;-51
2022/02/08 10:31:26;;;;;;;1.20;1.10;;;6.80;99.90;;;;;;4930427;28;20228;-51
2022/02/08 10:39:26;;;;;;;0.90;0.80;;;6.80;99.90;;;;;;4929897;29;20592;-50
2022/02/08 10:41:55;;;;;;;0.95;0.95;;;6.80;99.90;;;;;;4935723;28;20229;-51
2022/02/08 10:44:24;;;;;;;1.02;0.88;;;6.80;99.90;;;;;;4929910;29;20280;-52
2022/02/08 10:47:00;;;;;;;1.33;1.00;;;6.80;99.90;;;;;;4930093;28;20232;-51
2022/02/08 10:49:33;;;;;;;1.27;0.80;;;6.80;99.90;;;;;;4925530;29;20228;-51
2022/02/08 10:52:03;;;;;;;2.30;0.90;;;6.80;99.90;;;;;;4921611;28;20228;-51
2022/02/08 10:54:37;;;;;;;1.38;1.27;;;6.80;99.90;;;;;;4928219;29;20193;-51
2022/02/08 10:57:13;;;;;;;1.75;1.33;;;6.80;99.90;;;;;;4928362;28;20286;-51
2022/02/08 10:59:51;;;;;;;1.05;0.82;;;6.80;99.90;;;;;;4933192;29;20269;-51
2022/02/08 11:02:24;;;;;;;0.90;0.90;;;6.80;99.90;;;;;;4941365;28;20220;-51
2022/02/08 11:04:59;;;;;;;1.73;1.00;;;6.80;99.90;;;;;;4918023;29;20731;-50
2022/02/08 11:07:45;;;;;;;1.58;1.23;;;6.80;99.90;;;;;;4929510;29;20619;-49
2022/02/08 11:10:26;;;;;;;1.25;1.15;;;6.80;99.90;;;;;;4934100;28;20263;-50
2022/02/08 11:13:02;;;;;;;1.27;1.00;;;6.80;99.90;;;;;;4923152;29;20232;-50
2022/02/08 11:15:41;;;;;;;0.80;0.80;;;6.80;99.90;;;;;;4929292;28;20766;-51
2022/02/08 11:18:33;;;;;;;1.00;0.90;;;6.80;99.90;;;;;;4932608;29;20216;-51
2022/02/08 11:21:17;;;;;;;1.42;1.17;;;6.80;99.90;;;;;;4922781;28;20715;-51
2022/02/08 11:24:00;;;;;;;0.95;0.95;;;6.80;99.90;;;;;;4939849;29;20196;-51
2022/02/08 11:26:31;;;;;;;1.13;0.90;;;6.80;99.90;;;;;;4932188;28;20214;-52
2022/02/08 11:29:09;;;;;;;1.02;0.93;;;6.80;99.90;;;;;;4935042;28;20555;-50
2022/02/08 11:31:44;;;;;;;1.48;1.00;;;6.80;99.90;;;;;;4948885;28;20248;-52
2022/02/08 11:51:10;;;;;;;1.25;1.10;;;6.90;99.90;;;;;;4919983;28;20654;-51
2022/02/08 11:53:45;;;;;;;0.93;0.80;;;6.90;99.90;;;;;;4930165;28;20199;-52
2022/02/08 11:56:42;;;;;;;0.90;0.90;;;6.90;99.90;;;;;;4929667;28;20258;-50
2022/02/08 11:59:45;;;;;;;1.52;0.85;;;6.80;99.90;;;;;;4932148;28;20320;-52
2022/02/08 12:02:46;;;;;;;1.00;0.90;;;6.90;99.90;;;;;;4943067;28;20240;-51
2022/02/08 12:05:28;;;;;;;1.55;0.90;;;6.90;99.90;;;;;;4921256;28;20549;-51
2022/02/08 12:07:59;;;;;;;0.93;0.80;;;6.80;99.90;;;;;;4946640;29;20228;-52
2022/02/08 12:10:33;;;;;;;1.00;0.90;;;6.90;99.90;;;;;;4948475;28;20232;-51
2022/02/08 12:13:28;;;;;;;0.85;0.80;;;6.90;99.90;;;;;;4942017;28;20227;-51
2022/02/08 12:33:14;;;;;;;2.30;1.40;;;6.90;99.90;;;;;;4922795;29;20217;-51
2022/02/08 12:35:58;;;;;;;2.10;1.00;;;6.90;99.90;;;;;;4923086;28;20775;-51
2022/02/08 12:56:11;;;;;;;4.57;4.18;;;7.00;99.90;;;;;;4929125;28;20680;-52
2022/02/08 13:04:23;;;;;;;4.03;3.50;;;7.00;99.90;;;;;;4866968;29;20231;-51
2022/02/08 13:32:56;;;;;;;3.28;2.97;;;7.00;99.90;;;;;;4929382;28;20228;-51
2022/02/08 14:06:00;;;;;;;3.25;2.65;;;7.60;99.90;;;;;;4929314;28;20232;-54
2022/02/08 14:11:37;;;;;;;3.30;2.05;;;7.70;99.90;;;;;;4926111;28;20228;-53
2022/02/08 14:14:29;;;;;;;2.60;2.30;;;7.80;99.90;;;;;;4936143;29;20295;-53
2022/02/08 14:17:32;;;;;;;3.00;2.10;;;7.80;99.90;;;;;;4952205;28;20474;-53
2022/02/08 14:20:42;;;;;;;6.88;2.30;;;7.80;99.90;;;;;;4927471;29;20238;-52
2022/02/08 14:23:28;;;;;;;2.42;1.95;;;7.80;99.90;;;;;;4935479;29;20293;-54
2022/02/08 14:29:11;;;;;;;1.92;1.80;;;7.90;99.90;;;;;;4929693;28;20516;-53
2022/02/08 14:31:53;;;;;;;2.38;2.17;;;7.90;99.90;;;;;;4927856;28;20253;-54
2022/02/08 14:37:30;;;;;;;2.93;1.87;;;7.90;99.90;;;;;;4911914;28;20496;-53
2022/02/08 15:08:09;;;;;;;2.40;1.67;;;8.00;99.90;;;;;;4926336;29;20467;-53
2022/02/08 15:10:43;;;;;;;4.17;2.33;;;8.00;99.90;;;;;;4912201;28;20522;-51
2022/02/08 15:13:13;;;;;;;2.20;1.73;;;8.00;99.90;;;;;;4949316;28;20467;-52
2022/02/08 15:16:09;;;;;;;2.40;1.60;;;8.00;99.90;;;;;;4937822;28;20475;-51
2022/02/08 15:18:38;;;;;;;2.23;1.90;;;8.00;99.90;;;;;;4923532;29;20473;-51
2022/02/08 15:21:10;;;;;;;2.53;1.63;;;8.00;99.90;;;;;;4912308;28;20489;-51
2022/02/08 15:23:38;;;;;;;2.07;1.70;;;7.90;99.90;;;;;;4929698;29;20451;-51
2022/02/08 15:26:08;;;;;;;3.88;2.10;;;7.90;99.90;;;;;;4939336;28;21185;-50
2022/02/08 15:28:40;;;;;;;1.90;1.80;;;7.90;99.90;;;;;;4932829;29;20288;-51
2022/02/08 15:31:09;;;;;;;1.53;1.43;;;7.90;99.90;;;;;;4943699;28;20495;-51
2022/02/08 15:33:37;;;;;;;2.70;1.63;;;7.80;99.90;;;;;;4929889;29;20556;-50
2022/02/08 15:36:08;;;;;;;1.93;1.70;;;7.90;99.90;;;;;;4936426;28;20476;-51
2022/02/08 15:38:40;;;;;;;1.50;1.40;;;7.90;99.90;;;;;;4944141;28;20472;-51
2022/02/08 15:41:09;;;;;;;1.60;1.50;;;7.80;99.90;;;;;;4924969;28;20851;-51
2022/02/08 15:43:38;;;;;;;1.50;1.40;;;7.80;99.90;;;;;;4924463;28;20593;-51
2022/02/08 15:46:13;;;;;;;3.13;2.00;;;7.80;99.90;;;;;;4953541;28;20459;-51
2022/02/08 15:48:44;;;;;;;2.10;1.50;;;7.80;99.90;;;;;;4941477;28;20445;-51
2022/02/08 15:51:19;;;;;;;2.10;1.40;;;7.80;99.90;;;;;;4940361;28;21025;-51
2022/02/08 15:54:00;;;;;;;1.35;1.25;;;7.80;99.90;;;;;;4947556;28;20984;-52
2022/02/08 16:07:38;;;;;;;1.48;1.38;;;7.80;99.90;;;;;;4928188;29;20215;-52
2022/02/08 16:10:12;;;;;;;2.08;1.40;;;7.80;99.90;;;;;;4945806;28;20231;-51
2022/02/08 16:13:00;;;;;;;1.57;1.47;;;7.80;99.90;;;;;;4945895;28;20268;-51
2022/02/08 16:15:37;;;;;;;1.23;1.10;;;7.80;99.90;;;;;;4932250;28;20492;-52
2022/02/08 16:18:14;;;;;;;1.90;1.80;;;7.80;99.90;;;;;;4942484;29;20218;-51
2022/02/08 16:23:53;;;;;;;1.50;1.40;;;7.80;99.90;;;;;;4946313;29;20445;-51
2022/02/08 16:26:38;;;;;;;2.27;1.53;;;7.80;99.90;;;;;;4928486;28;20485;-49
2022/02/08 16:29:21;;;;;;;1.70;1.50;;;7.70;99.90;;;;;;4944183;28;20529;-51
2022/02/08 16:46:32;;;;;;;1.90;1.20;;;7.80;99.90;;;;;;4937020;28;20222;-51
2022/02/08 16:52:28;;;;;;;1.33;1.00;;;7.70;99.90;;;;;;4930913;28;20216;-52
2022/02/08 16:55:00;;;;;;;1.50;1.30;;;7.70;99.90;;;;;;4936192;29;20435;-51
2022/02/08 16:57:36;;;;;;;1.95;1.30;;;7.70;99.90;;;;;;4937233;28;20794;-51
2022/02/08 17:00:08;;;;;;;1.80;0.93;;;7.70;99.90;;;;;;4926737;29;20618;-51
2022/02/08 17:02:48;;;;;;;1.95;1.10;;;7.70;99.90;;;;;;4939764;28;20466;-51
2022/02/08 17:05:17;;;;;;;1.65;1.52;;;7.70;99.90;;;;;;4931706;28;20654;-51
2022/02/08 17:07:46;;;;;;;1.50;1.30;;;7.70;99.90;;;;;;4928716;29;20230;-52
2022/02/08 17:10:29;;;;;;;1.23;1.13;;;7.70;99.90;;;;;;4945402;28;20262;-51
2022/02/08 17:13:06;;;;;;;1.52;1.20;;;7.70;99.90;;;;;;4932887;29;20514;-50
2022/02/08 17:15:46;;;;;;;2.00;1.45;;;7.70;99.90;;;;;;4913602;28;20211;-51
2022/02/08 17:35:38;;;;;;;1.85;1.40;;;7.70;99.90;;;;;;4932542;28;20206;-51
2022/02/08 17:46:15;;;;;;;1.27;1.13;;;7.70;99.90;;;;;;4929828;28;20859;-52
2022/02/08 17:48:43;;;;;;;1.60;1.50;;;7.70;99.90;;;;;;4924386;28;20201;-50
2022/02/08 17:51:13;;;;;;;1.40;1.30;;;7.70;99.90;;;;;;4930901;28;20233;-50
2022/02/08 17:54:01;;;;;;;1.33;1.10;;;7.70;99.90;;;;;;4930110;29;20200;-51
2022/02/08 17:56:29;;;;;;;1.50;1.30;;;7.70;99.90;;;;;;4922595;28;20232;-51
2022/02/08 17:59:03;;;;;;;1.27;1.13;;;7.70;99.90;;;;;;4928203;29;20709;-52
2022/02/08 18:01:32;;;;;;;1.90;1.43;;;7.70;99.90;;;;;;4930920;28;20290;-52
2022/02/08 18:04:00;;;;;;;1.40;1.30;;;7.70;99.90;;;;;;4921346;29;20442;-51
2022/02/08 18:06:31;;;;;;;1.20;1.10;;;7.70;99.90;;;;;;4923537;28;20257;-51
2022/02/08 18:09:01;;;;;;;1.30;1.20;;;7.70;99.90;;;;;;4930212;29;20196;-52
2022/02/08 18:11:35;;;;;;;1.52;1.42;;;7.70;99.90;;;;;;4930669;28;20559;-52
2022/02/08 18:14:08;;;;;;;1.70;1.60;;;7.70;99.90;;;;;;4927089;29;20198;-51
2022/02/08 18:16:36;;;;;;;1.45;1.20;;;7.70;99.90;;;;;;4949119;28;20237;-51
2022/02/08 18:19:15;;;;;;;1.65;1.27;;;7.70;99.90;;;;;;4930321;28;20699;-50
2022/02/08 18:21:52;;;;;;;1.45;1.08;;;7.80;99.90;;;;;;4930007;28;20704;-51
2022/02/08 18:27:38;;;;;;;1.40;1.30;;;7.70;99.90;;;;;;4923038;29;20242;-51
2022/02/08 19:03:23;;;;;;;1.55;1.45;;;7.70;99.90;;;;;;4922836;29;20227;-51
2022/02/08 19:09:25;;;;;;;1.40;1.30;;;7.80;99.90;;;;;;4929627;29;20209;-50
2022/02/08 19:12:08;;;;;;;1.48;1.38;;;7.70;99.90;;;;;;4929135;28;20314;-51
2022/02/08 19:18:03;;;;;;;1.70;1.60;;;7.80;99.90;;;;;;4943981;28;20629;-50